Impacts METAR Board
IDs:

KMIA - Miami Intl, FL, US

Updated at: 1200 UTC 21 Sep 2018
Potential Impact None Slight Moderate High
Time 21/00Z 21/01Z 21/02Z 21/03Z 21/04Z 21/05Z 21/06Z 21/07Z 21/08Z 21/09Z 21/10Z 21/11Z 21/12Z
Temp84 83 83 83 84 83 82 82 82 74 76 78 80
Dewpt75 75 76 76 77 76 76 76 76 72 75 75 75
Altim30.01 30.02 30.04 30.05 30.05 30.05 30.04 30.02 30.01 30.00 30.00 30.01 30.02
VIS10 10 10 10 10 10 10 10 10 10 10 10 10
CIG-- -- -- -- -- -- -- -- 250 110 -- -- --
CoverSCTSCTSCTFEWSCTFEWFEWSCTBKNOVCSCTSCTSCT
FltCatVFRVFRVFRVFRVFRVFRVFRVFRVFRVFRVFRVFRVFR
WX--------------TSTS-RA------
WDir901009090100901000204002010
WSpd7 9 9 5 7 7 4 0 3 4 0 3 3
WGst-- -- -- -- -- -- -- -- -- -- -- -- --
Raw hourly METARs
KMIA 202353Z 09007KT 10SM FEW029 FEW180 SCT250 29/24 A3001 RMK AO2 SLP163 T02890239 10317 20272 50005
KMIA 210053Z 10009KT 10SM FEW026 SCT250 28/24 A3002 RMK AO2 SLP167 T02830239
KMIA 210153Z 09009KT 10SM FEW025 FEW070 SCT250 28/24 A3004 RMK AO2 SLP172 T02830244
KMIA 210253Z 09005KT 10SM FEW024 28/24 A3005 RMK AO2 SLP176 T02830244 53014
KMIA 210353Z 10007KT 10SM SCT024 29/25 A3005 RMK AO2 SLP177 T02890250
KMIA 210453Z 09007KT 10SM FEW027 FEW035 28/24 A3005 RMK AO2 SLP174 CB DSNT N MOV W T02830244 403280256
KMIA 210553Z 10004KT 10SM FEW027 28/24 A3004 RMK AO2 LTG DSNT N SLP172 CB DSNT NE MOV W T02780244 10289 20278 58004
KMIA 210653Z 00000KT 10SM TS FEW025CB FEW080 SCT250 28/24 A3002 RMK AO2 LTG DSNT SE AND NW TSB40 SLP166 OCNL LTGIC S AND NW-N TS NW-N MOV W CB DSNT S MOV W T02780244
KMIA 210753Z 02003KT 10SM TS SCT025CB BKN250 28/24 A3001 RMK AO2 LTG DSNT NW TSE16E38B40 SLP161 OCNL LTGICCG SE TS SE MOV W T02780244
KMIA 210853Z COR 04004KT 10SM -RA SCT034CB BKN110 OVC250 23/22 A3000 RMK AO2 RAB00 TSE11B18E45 SLP158 CB W MOV W P0055 60055 T02330222 56008 $
KMIA 210953Z 00000KT 10SM FEW025 FEW120 SCT250 24/24 A3000 RMK AO2 RAE06 SLP159 CONS LTGICCA DSNT S CB DSNT S MOV W P0000 T02440239 $
KMIA 211053Z 02003KT 10SM FEW025 FEW110 SCT230 26/24 A3001 RMK AO2 SLP163 T02560239 $
KMIA 211153Z 01003KT 10SM FEW025 FEW110 SCT230 27/24 A3002 RMK AO2 SLP167 60055 70055 T02670239 10283 20228 53009 $



Page loaded:  12:35 UTC  |   05:35 AM Pacific  |   06:35 AM Mountain  |   07:35 AM Central  |   08:35 AM Eastern

 

ADVISORIES

FORECASTS

FORECASTS

OBSERVATIONS

USER TOOLS

ABOUT US